createdAt,value
2019-04-23T00:00:08.839Z,3.60
2019-04-23T00:02:50.695Z,8.80
2019-04-23T00:05:38.855Z,4.60
2019-04-23T00:08:07.763Z,6.90
2019-04-23T00:10:53.726Z,6.30
2019-04-23T00:13:05.771Z,4.17
2019-04-23T00:21:42.462Z,4.00
2019-04-23T00:24:53.298Z,5.13
2019-04-23T00:27:17.332Z,5.30
2019-04-23T00:29:49.611Z,8.10
2019-04-23T00:32:15.412Z,8.57
2019-04-23T00:34:49.618Z,4.10
2019-04-23T00:39:54.729Z,6.20
2019-04-23T00:42:31.318Z,6.23
2019-04-23T00:47:38.298Z,5.30
2019-04-23T00:53:02.037Z,3.17
2019-04-23T00:55:41.043Z,10.67
2019-04-23T00:58:17.619Z,4.60
2019-04-23T01:00:56.154Z,4.90
2019-04-23T01:03:17.470Z,4.53
2019-04-23T01:05:52.373Z,9.10
2019-04-23T01:08:30.189Z,4.90
2019-04-23T01:11:16.627Z,5.27
2019-04-23T01:14:13.229Z,9.40
2019-04-23T01:16:42.671Z,4.33
2019-04-23T01:19:39.930Z,8.70
2019-04-23T01:21:57.903Z,3.93
2019-04-23T01:24:52.265Z,5.37
2019-04-23T01:27:55.861Z,7.57
2019-04-23T01:30:29.959Z,4.17
2019-04-23T01:33:07.182Z,5.17
2019-04-23T01:35:33.434Z,4.93
2019-04-23T01:38:11.097Z,4.33
2019-04-23T01:40:40.658Z,5.33
2019-04-23T01:43:38.197Z,4.90
2019-04-23T01:45:50.185Z,4.83
2019-04-23T01:48:32.871Z,3.87
2019-04-23T01:51:02.348Z,9.93
2019-04-23T01:53:45.266Z,4.80
2019-04-23T01:56:27.401Z,8.70
2019-04-23T01:59:00.232Z,5.90
2019-04-23T02:01:36.729Z,5.20
2019-04-23T02:06:40.511Z,4.37
2019-04-23T02:09:13.866Z,11.33
2019-04-23T02:11:43.601Z,4.00
2019-04-23T02:14:20.835Z,7.83
2019-04-23T02:16:50.021Z,6.23
2019-04-23T02:19:29.363Z,6.70
2019-04-23T02:22:21.899Z,4.83
2019-04-23T02:24:55.920Z,5.47
2019-04-23T02:27:29.984Z,4.97
2019-04-23T02:32:37.734Z,6.17
2019-04-23T02:35:37.012Z,5.50
2019-04-23T02:48:19.665Z,6.83
2019-04-23T02:51:04.411Z,4.70
2019-04-23T02:56:01.807Z,4.50
2019-04-23T03:03:42.869Z,6.07
2019-04-23T03:06:16.483Z,4.13
2019-04-23T03:09:05.038Z,7.77
2019-04-23T03:11:32.181Z,5.93
2019-04-23T03:14:09.576Z,5.80
2019-04-23T03:22:55.991Z,4.90
2019-04-23T03:25:46.022Z,8.00
2019-04-23T03:28:07.108Z,5.77
2019-04-23T03:32:37.462Z,6.70
2019-04-23T03:43:37.482Z,4.87
2019-04-23T03:51:38.245Z,7.50
2019-04-23T03:54:26.370Z,8.17
2019-04-23T03:56:44.639Z,5.43
2019-04-23T03:59:11.832Z,8.57
2019-04-23T04:01:51.559Z,7.37
2019-04-23T04:11:45.034Z,9.70
2019-04-23T04:14:38.524Z,7.77
2019-04-23T04:17:03.527Z,11.90
2019-04-23T04:19:47.877Z,7.67
2019-04-23T04:27:19.993Z,9.27
2019-04-23T04:32:36.092Z,10.40
2019-04-23T04:40:23.586Z,10.57
2019-04-23T04:45:30.387Z,8.87
2019-04-23T04:47:49.322Z,8.67
2019-04-23T04:50:26.624Z,7.30
2019-04-23T04:55:42.220Z,6.53
2019-04-23T04:58:13.044Z,10.83
2019-04-23T05:03:32.780Z,13.73
2019-04-23T05:11:40.943Z,7.73
2019-04-23T05:14:08.568Z,8.23
2019-04-23T05:16:35.563Z,6.20
2019-04-23T05:19:22.282Z,6.57
2019-04-23T05:22:02.946Z,7.60
2019-04-23T05:24:30.366Z,6.93
2019-04-23T05:29:48.466Z,6.40
2019-04-23T05:32:09.566Z,7.00
2019-04-23T05:34:42.372Z,9.63
2019-04-23T05:37:14.697Z,7.87
2019-04-23T05:39:45.438Z,7.77
2019-04-23T05:42:19.592Z,11.40
2019-04-23T05:44:53.995Z,11.03
2019-04-23T05:47:47.476Z,13.60
2019-04-23T05:50:11.118Z,7.97
2019-04-23T05:52:41.353Z,13.47
2019-04-23T05:55:20.141Z,9.10
2019-04-23T05:57:43.853Z,8.87
2019-04-23T06:00:23.720Z,9.73
2019-04-23T06:03:22.625Z,9.63
2019-04-23T06:05:42.966Z,6.83
2019-04-23T06:08:29.709Z,10.90
2019-04-23T06:10:55.560Z,10.10
2019-04-23T06:13:36.588Z,12.07
2019-04-23T06:16:04.754Z,6.03
2019-04-23T06:18:44.697Z,11.27
2019-04-23T06:21:21.504Z,9.47
2019-04-23T06:26:39.996Z,10.27
2019-04-23T06:29:01.788Z,7.77
2019-04-23T06:31:30.816Z,9.83
2019-04-23T06:34:04.179Z,10.53
2019-04-23T06:36:32.658Z,9.87
2019-04-23T06:39:01.346Z,13.00
2019-04-23T06:41:46.479Z,9.87
2019-04-23T06:44:25.391Z,18.13
2019-04-23T06:47:03.136Z,9.60
2019-04-23T06:50:08.141Z,12.07
2019-04-23T06:52:10.395Z,7.70
2019-04-23T06:54:42.399Z,12.87
2019-04-23T06:57:14.881Z,7.40
2019-04-23T06:59:41.413Z,9.63
2019-04-23T07:05:02.213Z,9.60
2019-04-23T07:09:58.008Z,10.60
2019-04-23T07:12:36.508Z,10.27
2019-04-23T07:15:27.660Z,12.23
2019-04-23T07:17:42.794Z,11.73
2019-04-23T07:20:20.154Z,10.40
2019-04-23T07:22:56.759Z,10.00
2019-04-23T07:25:22.386Z,11.03
2019-04-23T07:28:07.119Z,11.67
2019-04-23T07:30:33.236Z,9.53
2019-04-23T07:33:11.999Z,12.83
2019-04-23T07:35:45.560Z,9.17
2019-04-23T07:41:25.276Z,14.20
2019-04-23T07:44:05.185Z,12.47
2019-04-23T07:46:52.861Z,9.93
2019-04-23T07:49:18.096Z,10.07
2019-04-23T07:52:01.171Z,9.77
2019-04-23T07:54:32.581Z,8.13
2019-04-23T07:59:35.289Z,9.80
2019-04-23T08:02:14.456Z,10.80
2019-04-23T08:04:57.940Z,10.37
2019-04-23T08:07:14.634Z,13.07
2019-04-23T08:09:47.868Z,9.30
2019-04-23T08:15:02.188Z,12.03
2019-04-23T08:17:43.487Z,12.17
2019-04-23T08:19:59.599Z,10.73
2019-04-23T08:22:35.052Z,9.57
2019-04-23T08:25:19.345Z,11.57
2019-04-23T08:28:01.704Z,12.27
2019-04-23T08:30:25.520Z,11.57
2019-04-23T08:33:04.289Z,11.30
2019-04-23T08:35:43.213Z,9.97
2019-04-23T08:38:21.040Z,10.50
2019-04-23T08:40:55.655Z,12.93
2019-04-23T08:43:36.261Z,12.50
2019-04-23T08:46:23.032Z,11.67
2019-04-23T08:49:01.460Z,9.97
2019-04-23T08:51:38.930Z,13.27
2019-04-23T08:53:58.956Z,10.90
2019-04-23T08:56:32.225Z,12.03
2019-04-23T08:59:22.582Z,16.47
2019-04-23T09:01:47.994Z,10.87
2019-04-23T09:04:21.544Z,9.80
2019-04-23T09:06:55.429Z,9.50
2019-04-23T09:09:30.703Z,12.83
2019-04-23T09:11:54.499Z,15.07
2019-04-23T09:14:25.790Z,11.87
2019-04-23T09:17:04.833Z,11.33
2019-04-23T09:19:42.819Z,8.57
2019-04-23T09:22:14.536Z,8.87
2019-04-23T09:24:48.829Z,9.90
2019-04-23T09:30:07.106Z,8.50
2019-04-23T09:32:49.549Z,8.13
2019-04-23T09:35:59.796Z,10.80
2019-04-23T09:38:54.149Z,19.60
2019-04-23T09:41:44.962Z,11.57
2019-04-23T09:44:55.957Z,9.43
2019-04-23T09:47:37.151Z,12.57
2019-04-23T09:50:08.684Z,8.10
2019-04-23T09:52:48.755Z,10.37
2019-04-23T09:55:22.445Z,10.77
2019-04-23T09:58:00.615Z,9.43
2019-04-23T10:00:41.345Z,12.37
2019-04-23T10:02:53.411Z,9.57
2019-04-23T10:05:22.420Z,10.40
2019-04-23T10:07:51.989Z,9.23
2019-04-23T10:10:14.392Z,6.93
2019-04-23T10:12:46.047Z,11.10
2019-04-23T10:15:24.305Z,9.80
2019-04-23T10:17:50.139Z,7.92
2019-04-23T10:20:22.589Z,10.07
2019-04-23T10:22:54.829Z,8.88
2019-04-23T10:25:27.891Z,7.77
2019-04-23T10:28:04.978Z,10.10
2019-04-23T10:30:32.995Z,9.98
2019-04-23T10:33:05.635Z,8.30
2019-04-23T10:35:46.052Z,7.12
2019-04-23T10:38:14.289Z,10.55
2019-04-23T10:40:48.454Z,11.75
2019-04-23T10:43:20.675Z,9.68
2019-04-23T10:46:47.218Z,8.13
2019-04-23T10:50:18.523Z,8.23
2019-04-23T10:53:02.467Z,9.15
2019-04-23T10:55:08.196Z,8.73
2019-04-23T10:57:41.336Z,9.43
2019-04-23T11:00:15.956Z,14.90
2019-04-23T11:02:51.320Z,8.65
2019-04-23T11:08:10.503Z,11.75
2019-04-23T11:10:48.507Z,8.70
2019-04-23T11:16:25.451Z,9.87
2019-04-23T11:18:50.152Z,10.13
2019-04-23T11:21:13.679Z,9.85
2019-04-23T11:23:43.038Z,10.05
2019-04-23T11:26:21.810Z,9.95
2019-04-23T11:28:45.123Z,10.63
2019-04-23T11:31:39.306Z,12.82
2019-04-23T11:34:01.006Z,8.25
2019-04-23T11:36:53.879Z,9.28
2019-04-23T11:39:05.898Z,8.10
2019-04-23T11:41:51.433Z,9.00
2019-04-23T11:44:19.011Z,8.48
2019-04-23T11:49:48.289Z,10.65
2019-04-23T11:54:35.519Z,8.03
2019-04-23T11:59:55.624Z,8.60
2019-04-23T12:02:46.602Z,8.43
2019-04-23T12:05:46.608Z,8.58
2019-04-23T12:08:34.944Z,8.63
2019-04-23T12:11:41.021Z,7.10
2019-04-23T12:14:31.001Z,10.18
2019-04-23T12:17:07.859Z,6.90
2019-04-23T12:19:54.956Z,10.40
2019-04-23T12:22:15.175Z,12.13
2019-04-23T12:27:13.743Z,8.58
2019-04-23T12:29:46.282Z,9.60
2019-04-23T12:35:16.243Z,12.63
2019-04-23T12:37:53.863Z,10.45
2019-04-23T12:40:36.647Z,7.10
2019-04-23T12:43:18.314Z,12.05
2019-04-23T12:53:31.760Z,8.63
2019-04-23T12:56:02.459Z,7.35
2019-04-23T12:58:29.277Z,8.98
2019-04-23T13:01:07.288Z,13.08
2019-04-23T13:03:39.198Z,9.93
2019-04-23T13:06:10.822Z,13.20
2019-04-23T13:09:00.929Z,15.30
2019-04-23T13:11:23.275Z,11.28
2019-04-23T13:13:51.995Z,9.70
2019-04-23T13:16:44.545Z,11.35
2019-04-23T13:19:03.592Z,11.43
2019-04-23T13:21:51.437Z,11.03
2019-04-23T13:24:18.088Z,11.68
2019-04-23T13:26:46.533Z,8.93
2019-04-23T13:29:27.234Z,9.70
2019-04-23T13:31:50.204Z,8.28
2019-04-23T13:34:37.605Z,8.83
2019-04-23T13:37:05.208Z,10.25
2019-04-23T13:39:42.232Z,16.17
2019-04-23T13:42:15.914Z,14.07
2019-04-23T13:44:49.983Z,17.35
2019-04-23T13:47:36.768Z,14.70
2019-04-23T13:49:58.412Z,10.53
2019-04-23T13:52:48.004Z,10.85
2019-04-23T13:55:04.305Z,18.67
2019-04-23T13:57:57.709Z,10.60
2019-04-23T14:00:07.042Z,13.50
2019-04-23T14:05:22.129Z,14.50
2019-04-23T14:07:54.103Z,9.08
2019-04-23T14:10:32.865Z,7.97
2019-04-23T14:13:15.189Z,9.30
2019-04-23T14:15:45.062Z,9.90
2019-04-23T14:18:29.095Z,9.98
2019-04-23T14:20:40.372Z,7.60
2019-04-23T14:23:25.746Z,14.70
2019-04-23T14:26:01.578Z,12.03
2019-04-23T14:28:28.773Z,8.65
2019-04-23T14:33:37.922Z,10.40
2019-04-23T14:36:05.356Z,13.03
2019-04-23T14:38:41.606Z,10.53
2019-04-23T14:41:21.397Z,12.05
2019-04-23T14:44:07.278Z,11.95
2019-04-23T14:48:57.603Z,9.85
2019-04-23T14:51:52.996Z,10.75
2019-04-23T14:54:06.209Z,10.88
2019-04-23T14:56:46.289Z,16.40
2019-04-23T15:01:49.803Z,9.18
2019-04-23T15:04:24.129Z,9.53
2019-04-23T15:07:04.133Z,13.38
2019-04-23T15:09:27.736Z,11.93
2019-04-23T15:12:20.495Z,13.98
2019-04-23T15:14:46.349Z,12.18
2019-04-23T15:17:07.249Z,9.15
2019-04-23T15:19:47.953Z,13.20
2019-04-23T15:22:21.763Z,9.05
2019-04-23T15:25:05.299Z,11.90
2019-04-23T15:29:51.141Z,12.75
2019-04-23T15:32:53.875Z,14.58
2019-04-23T15:35:24.947Z,9.53
2019-04-23T15:38:12.079Z,6.87
2019-04-23T15:42:58.093Z,15.63
2019-04-23T15:45:28.526Z,13.08
2019-04-23T15:48:05.925Z,16.87
2019-04-23T15:50:40.146Z,12.10
2019-04-23T15:53:17.491Z,14.30
2019-04-23T16:01:27.147Z,15.05
2019-04-23T16:03:25.089Z,12.13
2019-04-23T16:05:57.238Z,12.20
2019-04-23T16:09:05.497Z,14.60
2019-04-23T16:14:17.661Z,12.10
2019-04-23T16:19:29.105Z,9.93
2019-04-23T16:24:42.082Z,10.10
2019-04-23T16:27:11.016Z,9.03
2019-04-23T16:32:45.923Z,14.28
2019-04-23T16:35:21.259Z,22.82
2019-04-23T16:38:00.899Z,10.43
2019-04-23T16:40:31.859Z,11.68
2019-04-23T16:43:03.726Z,13.17
2019-04-23T16:45:31.745Z,11.68
2019-04-23T16:48:07.129Z,13.90
2019-04-23T16:50:56.315Z,13.78
2019-04-23T16:53:21.637Z,14.75
2019-04-23T16:55:47.466Z,14.70
2019-04-23T16:58:26.425Z,12.63
2019-04-23T17:01:06.035Z,9.15
2019-04-23T17:03:31.229Z,8.60
2019-04-23T17:06:12.295Z,9.28
2019-04-23T17:08:57.826Z,12.57
2019-04-23T17:11:20.356Z,12.45
2019-04-23T17:13:55.417Z,14.38
2019-04-23T17:16:28.532Z,12.70
2019-04-23T17:19:04.772Z,10.88
2019-04-23T17:21:32.537Z,14.20
2019-04-23T17:24:15.437Z,17.80
2019-04-23T17:26:38.961Z,11.03
2019-04-23T17:34:23.717Z,11.75
2019-04-23T17:37:07.066Z,10.83
2019-04-23T17:43:33.274Z,10.50
2019-04-23T17:50:56.584Z,12.90
2019-04-23T17:53:29.686Z,12.97
2019-04-23T17:56:16.806Z,13.37
2019-04-23T18:09:06.089Z,9.03
2019-04-23T18:11:35.700Z,10.47
2019-04-23T18:14:03.835Z,13.80
2019-04-23T18:16:41.095Z,10.53
2019-04-23T18:19:12.350Z,14.97
2019-04-23T18:25:03.909Z,14.70
2019-04-23T18:27:21.538Z,13.13
2019-04-23T18:33:18.194Z,10.37
2019-04-23T18:37:56.847Z,13.77
2019-04-23T18:40:38.768Z,14.70
2019-04-23T18:43:16.416Z,13.80
2019-04-23T18:45:45.472Z,15.90
2019-04-23T18:53:43.759Z,15.83
2019-04-23T18:56:12.970Z,24.80
2019-04-23T19:04:33.758Z,16.83
2019-04-23T19:06:45.277Z,18.57
2019-04-23T19:13:02.068Z,11.97
2019-04-23T19:15:37.116Z,13.23
2019-04-23T19:25:59.594Z,16.43
2019-04-23T19:28:40.860Z,15.17
2019-04-23T19:31:04.897Z,14.20
2019-04-23T19:36:20.253Z,15.57
2019-04-23T19:38:46.100Z,13.40
2019-04-23T19:41:20.554Z,17.77
2019-04-23T19:43:55.594Z,15.13
2019-04-23T19:46:41.579Z,17.20
2019-04-23T19:49:05.728Z,13.77
2019-04-23T19:51:42.198Z,16.70
2019-04-23T19:54:17.089Z,12.77
2019-04-23T19:56:51.248Z,16.50
2019-04-23T19:59:25.599Z,16.17
2019-04-23T20:01:55.351Z,16.37
2019-04-23T20:04:25.958Z,14.90
2019-04-23T20:09:43.147Z,13.00
2019-04-23T20:12:02.458Z,15.57
2019-04-23T20:14:41.550Z,14.77
2019-04-23T20:17:31.107Z,17.80
2019-04-23T20:22:29.128Z,21.77
2019-04-23T20:25:18.634Z,14.53
2019-04-23T20:27:32.124Z,19.73
2019-04-23T20:35:39.552Z,19.83
2019-04-23T20:40:56.932Z,14.47
2019-04-23T20:43:34.866Z,19.00
2019-04-23T20:46:10.773Z,15.47
2019-04-23T20:48:40.819Z,14.43
2019-04-23T20:51:07.911Z,20.47
2019-04-23T20:53:47.236Z,16.13
2019-04-23T20:56:29.131Z,15.77
2019-04-23T20:58:59.743Z,17.67
2019-04-23T21:02:10.850Z,17.63
2019-04-23T21:04:42.615Z,14.57
2019-04-23T21:07:05.438Z,20.93
2019-04-23T21:09:52.972Z,12.43
2019-04-23T21:12:15.045Z,18.37
2019-04-23T21:14:57.572Z,17.53
2019-04-23T21:17:29.274Z,16.60
2019-04-23T21:20:01.025Z,17.43
2019-04-23T21:22:17.201Z,15.30
2019-04-23T21:27:49.095Z,15.40
2019-04-23T21:30:39.784Z,16.63
2019-04-23T21:36:11.078Z,17.17
2019-04-23T21:38:49.377Z,13.77
2019-04-23T21:41:41.832Z,16.30
2019-04-23T21:44:10.281Z,16.33
2019-04-23T21:51:46.297Z,16.00
2019-04-23T21:56:44.464Z,15.27
2019-04-23T22:01:54.182Z,19.00
2019-04-23T22:09:34.611Z,18.73
2019-04-23T22:12:08.928Z,16.17
2019-04-23T22:14:46.995Z,19.17
2019-04-23T22:17:16.895Z,12.83
2019-04-23T22:20:05.546Z,14.20
2019-04-23T22:22:32.332Z,18.23
2019-04-23T22:24:57.530Z,15.20
2019-04-23T22:27:41.262Z,11.93
2019-04-23T22:30:22.720Z,18.07
2019-04-23T22:32:55.861Z,15.87
2019-04-23T22:35:21.989Z,12.90
2019-04-23T22:40:34.485Z,15.00
2019-04-23T22:43:14.732Z,15.47
2019-04-23T22:48:13.869Z,19.27
2019-04-23T22:51:42.112Z,14.77
2019-04-23T22:53:25.492Z,13.90
2019-04-23T22:56:03.305Z,15.10
2019-04-23T22:58:46.023Z,17.87
2019-04-23T23:01:26.649Z,14.40
2019-04-23T23:04:04.533Z,15.77
2019-04-23T23:07:01.190Z,16.90
2019-04-23T23:09:34.268Z,16.33
2019-04-23T23:12:31.838Z,11.80
2019-04-23T23:14:45.795Z,18.90
2019-04-23T23:17:32.367Z,14.67
2019-04-23T23:20:12.188Z,18.13
2019-04-23T23:22:40.100Z,16.47
2019-04-23T23:25:11.497Z,14.60
2019-04-23T23:27:45.948Z,16.63
2019-04-23T23:30:08.828Z,14.50
2019-04-23T23:32:51.759Z,15.53
2019-04-23T23:35:24.532Z,20.03
2019-04-23T23:38:13.670Z,12.57
2019-04-23T23:40:36.590Z,20.80
2019-04-23T23:43:23.327Z,19.10
2019-04-23T23:45:57.402Z,15.50
2019-04-23T23:51:09.972Z,18.60
2019-04-23T23:54:05.067Z,13.40
2019-04-23T23:56:58.190Z,20.20
